sensor_id;sensor_type;location;lat;lon;timestamp;P1;durP1;ratioP1;P2;durP2;ratioP2
6937;SDS011;40040;42.706;23.372;2023-04-28T00:00:31;3.37;;;3.07;;
6937;SDS011;40040;42.706;23.372;2023-04-28T00:02:58;3.85;;;3.08;;
6937;SDS011;40040;42.706;23.372;2023-04-28T00:05:24;3.03;;;2.83;;
6937;SDS011;40040;42.706;23.372;2023-04-28T00:07:52;3.17;;;2.97;;
6937;SDS011;40040;42.706;23.372;2023-04-28T00:10:19;2.97;;;2.77;;
6937;SDS011;40040;42.706;23.372;2023-04-28T00:12:45;3.40;;;2.80;;
6937;SDS011;40040;42.706;23.372;2023-04-28T00:15:14;3.53;;;3.00;;
6937;SDS011;40040;42.706;23.372;2023-04-28T00:17:40;3.17;;;2.97;;
6937;SDS011;40040;42.706;23.372;2023-04-28T00:20:09;3.03;;;2.83;;
6937;SDS011;40040;42.706;23.372;2023-04-28T00:22:37;2.70;;;2.60;;
6937;SDS011;40040;42.706;23.372;2023-04-28T00:25:04;5.93;;;2.70;;
6937;SDS011;40040;42.706;23.372;2023-04-28T00:27:31;4.60;;;3.10;;
6937;SDS011;40040;42.706;23.372;2023-04-28T00:29:58;3.10;;;2.90;;
6937;SDS011;40040;42.706;23.372;2023-04-28T00:32:27;2.73;;;2.60;;
6937;SDS011;40040;42.706;23.372;2023-04-28T00:34:55;4.10;;;2.90;;
6937;SDS011;40040;42.706;23.372;2023-04-28T00:37:22;2.97;;;2.77;;
6937;SDS011;40040;42.706;23.372;2023-04-28T00:39:53;5.63;;;2.93;;
6937;SDS011;40040;42.706;23.372;2023-04-28T00:42:20;3.30;;;3.00;;
6937;SDS011;40040;42.706;23.372;2023-04-28T00:44:47;2.80;;;2.70;;
6937;SDS011;40040;42.706;23.372;2023-04-28T00:47:14;3.33;;;3.03;;
6937;SDS011;40040;42.706;23.372;2023-04-28T00:49:44;3.23;;;2.80;;
6937;SDS011;40040;42.706;23.372;2023-04-28T00:52:13;6.27;;;3.13;;
6937;SDS011;40040;42.706;23.372;2023-04-28T00:54:41;4.13;;;2.77;;
6937;SDS011;40040;42.706;23.372;2023-04-28T00:57:08;3.67;;;3.13;;
6937;SDS011;40040;42.706;23.372;2023-04-28T00:59:35;4.67;;;3.03;;
6937;SDS011;40040;42.706;23.372;2023-04-28T01:02:02;3.13;;;2.87;;
6937;SDS011;40040;42.706;23.372;2023-04-28T01:04:31;6.40;;;3.10;;
6937;SDS011;40040;42.706;23.372;2023-04-28T01:07:00;3.17;;;3.00;;
6937;SDS011;40040;42.706;23.372;2023-04-28T01:09:28;5.27;;;3.17;;
6937;SDS011;40040;42.706;23.372;2023-04-28T01:11:55;5.23;;;3.10;;
6937;SDS011;40040;42.706;23.372;2023-04-28T01:14:22;3.37;;;3.03;;
6937;SDS011;40040;42.706;23.372;2023-04-28T01:16:49;3.00;;;2.77;;
6937;SDS011;40040;42.706;23.372;2023-04-28T01:19:19;3.20;;;3.00;;
6937;SDS011;40040;42.706;23.372;2023-04-28T01:21:46;5.33;;;3.57;;
6937;SDS011;40040;42.706;23.372;2023-04-28T01:24:15;3.37;;;3.07;;
6937;SDS011;40040;42.706;23.372;2023-04-28T01:26:41;3.23;;;2.93;;
6937;SDS011;40040;42.706;23.372;2023-04-28T01:29:08;4.73;;;3.63;;
6937;SDS011;40040;42.706;23.372;2023-04-28T01:31:35;3.13;;;2.93;;
6937;SDS011;40040;42.706;23.372;2023-04-28T01:34:02;3.20;;;2.90;;
6937;SDS011;40040;42.706;23.372;2023-04-28T01:36:29;6.77;;;3.53;;
6937;SDS011;40040;42.706;23.372;2023-04-28T01:38:57;3.87;;;3.40;;
6937;SDS011;40040;42.706;23.372;2023-04-28T01:41:25;4.63;;;3.53;;
6937;SDS011;40040;42.706;23.372;2023-04-28T01:43:52;4.10;;;3.33;;
6937;SDS011;40040;42.706;23.372;2023-04-28T01:46:19;3.87;;;3.40;;
6937;SDS011;40040;42.706;23.372;2023-04-28T01:48:45;4.23;;;3.30;;
6937;SDS011;40040;42.706;23.372;2023-04-28T01:51:12;3.77;;;3.40;;
6937;SDS011;40040;42.706;23.372;2023-04-28T01:53:39;5.30;;;3.50;;
6937;SDS011;40040;42.706;23.372;2023-04-28T01:56:06;3.23;;;2.93;;
6937;SDS011;40040;42.706;23.372;2023-04-28T01:58:34;3.63;;;3.20;;
6937;SDS011;40040;42.706;23.372;2023-04-28T02:01:01;4.00;;;3.40;;
6937;SDS011;40040;42.706;23.372;2023-04-28T02:03:27;4.00;;;3.47;;
6937;SDS011;40040;42.706;23.372;2023-04-28T02:05:54;4.70;;;3.43;;
6937;SDS011;40040;42.706;23.372;2023-04-28T02:08:21;5.10;;;3.40;;
6937;SDS011;40040;42.706;23.372;2023-04-28T02:10:48;4.03;;;3.37;;
6937;SDS011;40040;42.706;23.372;2023-04-28T02:13:15;5.80;;;3.30;;
6937;SDS011;40040;42.706;23.372;2023-04-28T02:15:43;4.40;;;3.20;;
6937;SDS011;40040;42.706;23.372;2023-04-28T02:18:10;4.03;;;3.60;;
6937;SDS011;40040;42.706;23.372;2023-04-28T02:20:36;3.60;;;3.30;;
6937;SDS011;40040;42.706;23.372;2023-04-28T02:23:03;4.10;;;3.30;;
6937;SDS011;40040;42.706;23.372;2023-04-28T02:25:30;4.07;;;3.07;;
6937;SDS011;40040;42.706;23.372;2023-04-28T02:27:57;3.23;;;2.93;;
6937;SDS011;40040;42.706;23.372;2023-04-28T02:30:24;3.40;;;3.13;;
6937;SDS011;40040;42.706;23.372;2023-04-28T02:32:52;5.07;;;3.30;;
6937;SDS011;40040;42.706;23.372;2023-04-28T02:35:19;3.60;;;3.30;;
6937;SDS011;40040;42.706;23.372;2023-04-28T02:37:46;4.13;;;3.30;;
6937;SDS011;40040;42.706;23.372;2023-04-28T02:40:12;3.87;;;3.47;;
6937;SDS011;40040;42.706;23.372;2023-04-28T02:42:39;3.97;;;3.30;;
6937;SDS011;40040;42.706;23.372;2023-04-28T02:45:06;3.40;;;3.20;;
6937;SDS011;40040;42.706;23.372;2023-04-28T02:47:33;4.30;;;3.73;;
6937;SDS011;40040;42.706;23.372;2023-04-28T02:50:01;4.63;;;3.67;;
6937;SDS011;40040;42.706;23.372;2023-04-28T02:52:28;9.30;;;3.70;;
6937;SDS011;40040;42.706;23.372;2023-04-28T02:54:55;6.93;;;4.70;;
6937;SDS011;40040;42.706;23.372;2023-04-28T02:57:22;7.70;;;4.30;;
6937;SDS011;40040;42.706;23.372;2023-04-28T02:59:49;7.30;;;4.47;;
6937;SDS011;40040;42.706;23.372;2023-04-28T03:02:16;5.60;;;4.27;;
6937;SDS011;40040;42.706;23.372;2023-04-28T03:04:44;3.90;;;3.50;;
6937;SDS011;40040;42.706;23.372;2023-04-28T03:07:12;3.77;;;3.47;;
6937;SDS011;40040;42.706;23.372;2023-04-28T03:09:40;4.20;;;3.53;;
6937;SDS011;40040;42.706;23.372;2023-04-28T03:12:06;6.07;;;3.70;;
6937;SDS011;40040;42.706;23.372;2023-04-28T03:14:33;6.43;;;3.70;;
6937;SDS011;40040;42.706;23.372;2023-04-28T03:17:00;5.63;;;3.43;;
6937;SDS011;40040;42.706;23.372;2023-04-28T03:19:27;3.63;;;3.33;;
6937;SDS011;40040;42.706;23.372;2023-04-28T03:21:54;4.30;;;3.80;;
6937;SDS011;40040;42.706;23.372;2023-04-28T03:24:22;5.93;;;3.53;;
6937;SDS011;40040;42.706;23.372;2023-04-28T03:26:49;5.93;;;3.80;;
6937;SDS011;40040;42.706;23.372;2023-04-28T03:29:16;6.13;;;4.50;;
6937;SDS011;40040;42.706;23.372;2023-04-28T03:31:43;5.27;;;4.53;;
6937;SDS011;40040;42.706;23.372;2023-04-28T03:34:09;8.30;;;5.53;;
6937;SDS011;40040;42.706;23.372;2023-04-28T03:36:36;11.43;;;5.33;;
6937;SDS011;40040;42.706;23.372;2023-04-28T03:39:03;6.07;;;4.80;;
6937;SDS011;40040;42.706;23.372;2023-04-28T03:41:31;7.53;;;4.87;;
6937;SDS011;40040;42.706;23.372;2023-04-28T03:43:58;6.33;;;4.97;;
6937;SDS011;40040;42.706;23.372;2023-04-28T03:46:25;7.03;;;5.30;;
6937;SDS011;40040;42.706;23.372;2023-04-28T03:48:52;7.10;;;5.13;;
6937;SDS011;40040;42.706;23.372;2023-04-28T03:51:18;11.57;;;5.80;;
6937;SDS011;40040;42.706;23.372;2023-04-28T03:53:45;12.50;;;6.57;;
6937;SDS011;40040;42.706;23.372;2023-04-28T03:56:12;10.73;;;6.43;;
6937;SDS011;40040;42.706;23.372;2023-04-28T03:58:40;11.47;;;6.27;;
6937;SDS011;40040;42.706;23.372;2023-04-28T04:01:07;9.73;;;5.93;;
6937;SDS011;40040;42.706;23.372;2023-04-28T04:03:34;11.03;;;7.07;;
6937;SDS011;40040;42.706;23.372;2023-04-28T04:06:00;10.27;;;6.47;;
6937;SDS011;40040;42.706;23.372;2023-04-28T04:08:27;9.33;;;6.60;;
6937;SDS011;40040;42.706;23.372;2023-04-28T04:10:57;6.93;;;4.77;;
6937;SDS011;40040;42.706;23.372;2023-04-28T04:13:23;7.90;;;5.00;;
6937;SDS011;40040;42.706;23.372;2023-04-28T04:15:52;7.27;;;4.87;;
6937;SDS011;40040;42.706;23.372;2023-04-28T04:18:19;5.50;;;4.87;;
6937;SDS011;40040;42.706;23.372;2023-04-28T04:20:45;4.33;;;3.93;;
6937;SDS011;40040;42.706;23.372;2023-04-28T04:23:13;6.40;;;4.90;;
6937;SDS011;40040;42.706;23.372;2023-04-28T04:25:40;12.80;;;4.80;;
6937;SDS011;40040;42.706;23.372;2023-04-28T04:28:07;7.70;;;4.67;;
6937;SDS011;40040;42.706;23.372;2023-04-28T04:30:34;6.10;;;4.27;;
6937;SDS011;40040;42.706;23.372;2023-04-28T04:33:02;8.70;;;4.60;;
6937;SDS011;40040;42.706;23.372;2023-04-28T04:35:29;6.47;;;4.27;;
6937;SDS011;40040;42.706;23.372;2023-04-28T04:37:56;6.30;;;3.90;;
6937;SDS011;40040;42.706;23.372;2023-04-28T04:40:24;7.10;;;4.90;;
6937;SDS011;40040;42.706;23.372;2023-04-28T04:42:51;5.83;;;4.30;;
6937;SDS011;40040;42.706;23.372;2023-04-28T04:45:17;8.30;;;3.83;;
6937;SDS011;40040;42.706;23.372;2023-04-28T04:47:44;7.13;;;4.13;;
6937;SDS011;40040;42.706;23.372;2023-04-28T04:50:12;5.30;;;4.30;;
6937;SDS011;40040;42.706;23.372;2023-04-28T04:52:39;5.83;;;4.40;;
6937;SDS011;40040;42.706;23.372;2023-04-28T04:55:06;4.50;;;3.73;;
6937;SDS011;40040;42.706;23.372;2023-04-28T04:57:35;4.30;;;3.90;;
6937;SDS011;40040;42.706;23.372;2023-04-28T05:00:02;5.30;;;4.17;;
6937;SDS011;40040;42.706;23.372;2023-04-28T05:02:29;6.17;;;3.63;;
6937;SDS011;40040;42.706;23.372;2023-04-28T05:04:56;6.30;;;4.07;;
6937;SDS011;40040;42.706;23.372;2023-04-28T05:07:25;6.40;;;4.10;;
6937;SDS011;40040;42.706;23.372;2023-04-28T05:09:52;4.87;;;4.03;;
6937;SDS011;40040;42.706;23.372;2023-04-28T05:12:18;6.97;;;4.10;;
6937;SDS011;40040;42.706;23.372;2023-04-28T05:14:46;8.63;;;4.20;;
6937;SDS011;40040;42.706;23.372;2023-04-28T05:17:13;5.23;;;4.03;;
6937;SDS011;40040;42.706;23.372;2023-04-28T05:19:39;5.30;;;4.40;;
6937;SDS011;40040;42.706;23.372;2023-04-28T05:22:06;8.57;;;4.90;;
6937;SDS011;40040;42.706;23.372;2023-04-28T05:24:34;6.00;;;4.20;;
6937;SDS011;40040;42.706;23.372;2023-04-28T05:27:01;4.90;;;4.40;;
6937;SDS011;40040;42.706;23.372;2023-04-28T05:29:28;4.50;;;4.10;;
6937;SDS011;40040;42.706;23.372;2023-04-28T05:31:55;8.83;;;5.00;;
6937;SDS011;40040;42.706;23.372;2023-04-28T05:34:21;5.90;;;4.63;;
6937;SDS011;40040;42.706;23.372;2023-04-28T05:36:48;5.03;;;4.22;;
6937;SDS011;40040;42.706;23.372;2023-04-28T05:39:16;4.15;;;3.85;;
6937;SDS011;40040;42.706;23.372;2023-04-28T05:41:45;5.75;;;3.90;;
6937;SDS011;40040;42.706;23.372;2023-04-28T05:44:11;6.97;;;4.50;;
6937;SDS011;40040;42.706;23.372;2023-04-28T05:46:38;4.03;;;3.45;;
6937;SDS011;40040;42.706;23.372;2023-04-28T05:49:05;6.32;;;3.90;;
6937;SDS011;40040;42.706;23.372;2023-04-28T05:51:32;3.90;;;3.50;;
6937;SDS011;40040;42.706;23.372;2023-04-28T05:53:59;4.03;;;3.50;;
6937;SDS011;40040;42.706;23.372;2023-04-28T05:56:25;4.38;;;3.95;;
6937;SDS011;40040;42.706;23.372;2023-04-28T05:58:54;4.07;;;3.55;;
6937;SDS011;40040;42.706;23.372;2023-04-28T06:01:22;3.55;;;3.25;;
6937;SDS011;40040;42.706;23.372;2023-04-28T06:03:49;4.97;;;3.50;;
6937;SDS011;40040;42.706;23.372;2023-04-28T06:06:17;3.70;;;3.20;;
6937;SDS011;40040;42.706;23.372;2023-04-28T06:08:47;3.83;;;3.45;;
6937;SDS011;40040;42.706;23.372;2023-04-28T06:11:13;3.83;;;3.35;;
6937;SDS011;40040;42.706;23.372;2023-04-28T06:13:41;3.75;;;3.20;;
6937;SDS011;40040;42.706;23.372;2023-04-28T06:16:09;4.70;;;3.70;;
6937;SDS011;40040;42.706;23.372;2023-04-28T06:18:36;4.60;;;3.47;;
6937;SDS011;40040;42.706;23.372;2023-04-28T06:21:03;4.63;;;3.67;;
6937;SDS011;40040;42.706;23.372;2023-04-28T06:23:29;3.65;;;2.78;;
6937;SDS011;40040;42.706;23.372;2023-04-28T06:25:56;7.03;;;3.50;;
6937;SDS011;40040;42.706;23.372;2023-04-28T06:28:24;4.20;;;3.40;;
6937;SDS011;40040;42.706;23.372;2023-04-28T06:30:51;4.07;;;3.10;;
6937;SDS011;40040;42.706;23.372;2023-04-28T06:33:19;3.60;;;3.30;;
6937;SDS011;40040;42.706;23.372;2023-04-28T06:35:46;4.55;;;3.45;;
6937;SDS011;40040;42.706;23.372;2023-04-28T06:38:13;9.35;;;3.17;;
6937;SDS011;40040;42.706;23.372;2023-04-28T06:40:40;3.60;;;3.25;;
6937;SDS011;40040;42.706;23.372;2023-04-28T06:43:06;5.03;;;3.72;;
6937;SDS011;40040;42.706;23.372;2023-04-28T06:45:33;4.80;;;3.25;;
6937;SDS011;40040;42.706;23.372;2023-04-28T06:48:00;6.18;;;3.83;;
6937;SDS011;40040;42.706;23.372;2023-04-28T06:50:28;5.57;;;3.72;;
6937;SDS011;40040;42.706;23.372;2023-04-28T06:52:55;3.30;;;3.00;;
6937;SDS011;40040;42.706;23.372;2023-04-28T06:55:23;4.00;;;3.00;;
6937;SDS011;40040;42.706;23.372;2023-04-28T06:57:50;5.07;;;3.40;;
6937;SDS011;40040;42.706;23.372;2023-04-28T07:00:17;3.60;;;3.40;;
6937;SDS011;40040;42.706;23.372;2023-04-28T07:02:44;4.28;;;3.40;;
6937;SDS011;40040;42.706;23.372;2023-04-28T07:05:11;7.00;;;3.30;;
6937;SDS011;40040;42.706;23.372;2023-04-28T07:07:39;5.03;;;3.40;;
6937;SDS011;40040;42.706;23.372;2023-04-28T07:10:06;3.65;;;3.33;;
6937;SDS011;40040;42.706;23.372;2023-04-28T07:12:34;4.93;;;3.78;;
6937;SDS011;40040;42.706;23.372;2023-04-28T07:15:01;4.53;;;3.88;;
6937;SDS011;40040;42.706;23.372;2023-04-28T07:17:28;4.72;;;3.75;;
6937;SDS011;40040;42.706;23.372;2023-04-28T07:19:55;4.28;;;3.50;;
6937;SDS011;40040;42.706;23.372;2023-04-28T07:22:21;3.60;;;3.30;;
6937;SDS011;40040;42.706;23.372;2023-04-28T07:24:50;6.05;;;4.00;;
6937;SDS011;40040;42.706;23.372;2023-04-28T07:27:16;2.88;;;2.67;;
6937;SDS011;40040;42.706;23.372;2023-04-28T07:29:43;4.38;;;3.38;;
6937;SDS011;40040;42.706;23.372;2023-04-28T07:32:10;3.80;;;3.50;;
6937;SDS011;40040;42.706;23.372;2023-04-28T07:34:37;4.47;;;3.42;;
6937;SDS011;40040;42.706;23.372;2023-04-28T07:37:04;4.00;;;3.63;;
6937;SDS011;40040;42.706;23.372;2023-04-28T07:39:32;5.18;;;3.60;;
6937;SDS011;40040;42.706;23.372;2023-04-28T07:42:01;3.30;;;3.00;;
6937;SDS011;40040;42.706;23.372;2023-04-28T07:44:28;5.28;;;3.25;;
6937;SDS011;40040;42.706;23.372;2023-04-28T07:46:55;5.55;;;3.33;;
6937;SDS011;40040;42.706;23.372;2023-04-28T07:49:22;3.22;;;3.03;;
6937;SDS011;40040;42.706;23.372;2023-04-28T07:51:49;3.22;;;2.90;;
6937;SDS011;40040;42.706;23.372;2023-04-28T07:54:17;3.47;;;3.00;;
6937;SDS011;40040;42.706;23.372;2023-04-28T07:56:44;3.58;;;3.33;;
6937;SDS011;40040;42.706;23.372;2023-04-28T07:59:13;3.75;;;2.88;;
6937;SDS011;40040;42.706;23.372;2023-04-28T08:01:40;3.30;;;3.00;;
6937;SDS011;40040;42.706;23.372;2023-04-28T08:04:07;4.70;;;3.40;;
6937;SDS011;40040;42.706;23.372;2023-04-28T08:06:34;3.25;;;3.05;;
6937;SDS011;40040;42.706;23.372;2023-04-28T08:09:01;3.38;;;3.10;;
6937;SDS011;40040;42.706;23.372;2023-04-28T08:11:30;3.15;;;2.92;;
6937;SDS011;40040;42.706;23.372;2023-04-28T08:13:57;3.20;;;2.90;;
6937;SDS011;40040;42.706;23.372;2023-04-28T08:16:28;3.35;;;3.03;;
6937;SDS011;40040;42.706;23.372;2023-04-28T08:18:56;5.47;;;3.10;;
6937;SDS011;40040;42.706;23.372;2023-04-28T08:21:23;3.22;;;3.00;;
6937;SDS011;40040;42.706;23.372;2023-04-28T08:23:50;6.68;;;3.22;;
6937;SDS011;40040;42.706;23.372;2023-04-28T08:26:16;2.55;;;2.45;;
6937;SDS011;40040;42.706;23.372;2023-04-28T08:28:43;4.10;;;3.00;;
6937;SDS011;40040;42.706;23.372;2023-04-28T08:31:10;3.05;;;2.85;;
6937;SDS011;40040;42.706;23.372;2023-04-28T08:33:38;2.95;;;2.58;;
6937;SDS011;40040;42.706;23.372;2023-04-28T08:36:08;3.03;;;2.80;;
6937;SDS011;40040;42.706;23.372;2023-04-28T08:38:36;3.80;;;3.10;;
6937;SDS011;40040;42.706;23.372;2023-04-28T08:41:03;4.47;;;3.22;;
6937;SDS011;40040;42.706;23.372;2023-04-28T08:43:31;3.55;;;3.25;;
6937;SDS011;40040;42.706;23.372;2023-04-28T08:45:58;3.65;;;3.35;;
6937;SDS011;40040;42.706;23.372;2023-04-28T08:48:30;4.03;;;3.10;;
6937;SDS011;40040;42.706;23.372;2023-04-28T08:51:06;5.82;;;4.57;;
6937;SDS011;40040;42.706;23.372;2023-04-28T08:53:35;3.85;;;3.40;;
6937;SDS011;40040;42.706;23.372;2023-04-28T08:56:04;3.50;;;3.10;;
6937;SDS011;40040;42.706;23.372;2023-04-28T08:58:32;4.70;;;3.10;;
6937;SDS011;40040;42.706;23.372;2023-04-28T09:01:02;4.25;;;3.10;;
6937;SDS011;40040;42.706;23.372;2023-04-28T09:03:30;3.38;;;3.08;;
6937;SDS011;40040;42.706;23.372;2023-04-28T09:05:57;3.47;;;3.17;;
6937;SDS011;40040;42.706;23.372;2023-04-28T09:08:26;3.90;;;3.60;;
6937;SDS011;40040;42.706;23.372;2023-04-28T09:11:04;3.20;;;2.90;;
6937;SDS011;40040;42.706;23.372;2023-04-28T09:13:34;3.03;;;2.72;;
6937;SDS011;40040;42.706;23.372;2023-04-28T09:16:02;4.65;;;2.80;;
6937;SDS011;40040;42.706;23.372;2023-04-28T09:18:29;3.20;;;3.00;;
6937;SDS011;40040;42.706;23.372;2023-04-28T09:21:03;3.35;;;3.15;;
6937;SDS011;40040;42.706;23.372;2023-04-28T09:23:33;3.95;;;3.08;;
6937;SDS011;40040;42.706;23.372;2023-04-28T09:26:01;3.25;;;3.05;;
6937;SDS011;40040;42.706;23.372;2023-04-28T09:28:29;3.15;;;2.95;;
6937;SDS011;40040;42.706;23.372;2023-04-28T09:30:56;6.18;;;3.15;;
6937;SDS011;40040;42.706;23.372;2023-04-28T09:33:23;3.42;;;3.15;;
6937;SDS011;40040;42.706;23.372;2023-04-28T09:35:51;4.78;;;3.20;;
6937;SDS011;40040;42.706;23.372;2023-04-28T09:38:19;3.65;;;3.35;;
6937;SDS011;40040;42.706;23.372;2023-04-28T09:40:51;4.47;;;3.58;;
6937;SDS011;40040;42.706;23.372;2023-04-28T09:43:26;4.72;;;3.47;;
6937;SDS011;40040;42.706;23.372;2023-04-28T09:45:55;3.47;;;3.22;;
6937;SDS011;40040;42.706;23.372;2023-04-28T09:48:26;2.85;;;2.75;;
6937;SDS011;40040;42.706;23.372;2023-04-28T09:50:54;2.80;;;2.53;;
6937;SDS011;40040;42.706;23.372;2023-04-28T09:53:21;3.45;;;2.58;;
6937;SDS011;40040;42.706;23.372;2023-04-28T09:55:49;2.70;;;2.60;;
6937;SDS011;40040;42.706;23.372;2023-04-28T09:58:20;3.13;;;2.70;;
6937;SDS011;40040;42.706;23.372;2023-04-28T10:00:50;3.08;;;2.85;;
6937;SDS011;40040;42.706;23.372;2023-04-28T10:03:20;2.60;;;2.40;;
6937;SDS011;40040;42.706;23.372;2023-04-28T10:05:48;3.03;;;2.55;;
6937;SDS011;40040;42.706;23.372;2023-04-28T10:08:17;2.97;;;2.78;;
6937;SDS011;40040;42.706;23.372;2023-04-28T10:10:45;2.63;;;2.42;;
6937;SDS011;40040;42.706;23.372;2023-04-28T10:13:15;2.42;;;2.33;;
6937;SDS011;40040;42.706;23.372;2023-04-28T10:15:43;3.72;;;2.80;;
6937;SDS011;40040;42.706;23.372;2023-04-28T10:18:11;4.95;;;3.00;;
6937;SDS011;40040;42.706;23.372;2023-04-28T10:20:38;3.10;;;2.70;;
6937;SDS011;40040;42.706;23.372;2023-04-28T10:23:15;2.97;;;2.78;;
6937;SDS011;40040;42.706;23.372;2023-04-28T10:25:53;3.63;;;2.38;;
6937;SDS011;40040;42.706;23.372;2023-04-28T10:28:25;2.92;;;2.70;;
6937;SDS011;40040;42.706;23.372;2023-04-28T10:31:08;2.45;;;2.25;;
6937;SDS011;40040;42.706;23.372;2023-04-28T10:33:36;2.15;;;2.03;;
6937;SDS011;40040;42.706;23.372;2023-04-28T10:36:03;2.40;;;2.30;;
6937;SDS011;40040;42.706;23.372;2023-04-28T10:38:30;2.67;;;2.50;;
6937;SDS011;40040;42.706;23.372;2023-04-28T10:40:57;2.33;;;2.22;;
6937;SDS011;40040;42.706;23.372;2023-04-28T10:43:37;2.63;;;2.53;;
6937;SDS011;40040;42.706;23.372;2023-04-28T10:46:09;2.40;;;2.28;;
6937;SDS011;40040;42.706;23.372;2023-04-28T10:48:51;4.63;;;2.70;;
6937;SDS011;40040;42.706;23.372;2023-04-28T10:51:21;2.33;;;2.17;;
6937;SDS011;40040;42.706;23.372;2023-04-28T10:54:08;2.45;;;2.35;;
6937;SDS011;40040;42.706;23.372;2023-04-28T10:59:48;2.80;;;2.60;;
6937;SDS011;40040;42.706;23.372;2023-04-28T11:05:09;2.45;;;2.35;;
6937;SDS011;40040;42.706;23.372;2023-04-28T11:07:37;2.15;;;2.03;;
6937;SDS011;40040;42.706;23.372;2023-04-28T11:10:04;2.35;;;2.15;;
6937;SDS011;40040;42.706;23.372;2023-04-28T11:12:32;2.55;;;2.25;;
6937;SDS011;40040;42.706;23.372;2023-04-28T11:15:07;9.68;;;6.28;;
6937;SDS011;40040;42.706;23.372;2023-04-28T11:17:38;2.28;;;2.08;;
6937;SDS011;40040;42.706;23.372;2023-04-28T11:20:06;2.15;;;2.05;;
6937;SDS011;40040;42.706;23.372;2023-04-28T11:22:38;2.25;;;2.15;;
6937;SDS011;40040;42.706;23.372;2023-04-28T11:25:06;2.70;;;2.38;;
6937;SDS011;40040;42.706;23.372;2023-04-28T11:27:33;16.33;;;9.43;;
6937;SDS011;40040;42.706;23.372;2023-04-28T11:30:01;2.90;;;2.60;;
6937;SDS011;40040;42.706;23.372;2023-04-28T11:32:31;2.33;;;2.22;;
6937;SDS011;40040;42.706;23.372;2023-04-28T11:35:00;2.60;;;2.40;;
6937;SDS011;40040;42.706;23.372;2023-04-28T11:37:28;4.03;;;2.55;;
6937;SDS011;40040;42.706;23.372;2023-04-28T11:39:55;2.78;;;2.50;;
6937;SDS011;40040;42.706;23.372;2023-04-28T11:42:22;3.55;;;2.65;;
6937;SDS011;40040;42.706;23.372;2023-04-28T11:44:52;2.95;;;2.65;;
6937;SDS011;40040;42.706;23.372;2023-04-28T11:47:28;2.75;;;2.58;;
6937;SDS011;40040;42.706;23.372;2023-04-28T11:49:58;2.58;;;2.47;;
6937;SDS011;40040;42.706;23.372;2023-04-28T11:52:25;2.83;;;2.63;;
6937;SDS011;40040;42.706;23.372;2023-04-28T11:54:52;2.70;;;2.50;;
6937;SDS011;40040;42.706;23.372;2023-04-28T11:57:20;3.13;;;2.88;;
6937;SDS011;40040;42.706;23.372;2023-04-28T11:59:48;3.85;;;2.95;;
6937;SDS011;40040;42.706;23.372;2023-04-28T12:02:15;3.33;;;2.70;;
6937;SDS011;40040;42.706;23.372;2023-04-28T12:04:51;3.30;;;3.10;;
6937;SDS011;40040;42.706;23.372;2023-04-28T12:07:18;5.15;;;2.63;;
6937;SDS011;40040;42.706;23.372;2023-04-28T12:09:45;3.33;;;2.70;;
6937;SDS011;40040;42.706;23.372;2023-04-28T12:12:14;2.60;;;2.50;;
6937;SDS011;40040;42.706;23.372;2023-04-28T12:14:53;4.10;;;2.78;;
6937;SDS011;40040;42.706;23.372;2023-04-28T12:17:24;2.55;;;2.40;;
6937;SDS011;40040;42.706;23.372;2023-04-28T12:19:54;3.97;;;2.72;;
6937;SDS011;40040;42.706;23.372;2023-04-28T12:22:21;3.30;;;2.40;;
6937;SDS011;40040;42.706;23.372;2023-04-28T12:25:01;2.95;;;2.75;;
6937;SDS011;40040;42.706;23.372;2023-04-28T12:27:29;2.78;;;2.58;;
6937;SDS011;40040;42.706;23.372;2023-04-28T12:29:56;2.78;;;2.58;;
6937;SDS011;40040;42.706;23.372;2023-04-28T12:32:36;2.42;;;2.33;;
6937;SDS011;40040;42.706;23.372;2023-04-28T12:35:06;2.70;;;2.50;;
6937;SDS011;40040;42.706;23.372;2023-04-28T12:37:33;2.83;;;2.63;;
6937;SDS011;40040;42.706;23.372;2023-04-28T12:40:00;2.58;;;2.40;;
6937;SDS011;40040;42.706;23.372;2023-04-28T12:42:28;2.60;;;2.40;;
6937;SDS011;40040;42.706;23.372;2023-04-28T12:44:55;2.72;;;2.58;;
6937;SDS011;40040;42.706;23.372;2023-04-28T12:47:22;3.50;;;2.50;;
6937;SDS011;40040;42.706;23.372;2023-04-28T12:49:49;7.20;;;2.90;;
6937;SDS011;40040;42.706;23.372;2023-04-28T12:52:19;2.80;;;2.60;;
6937;SDS011;40040;42.706;23.372;2023-04-28T12:54:46;2.92;;;2.83;;
6937;SDS011;40040;42.706;23.372;2023-04-28T12:57:14;2.50;;;2.30;;
6937;SDS011;40040;42.706;23.372;2023-04-28T12:59:42;2.80;;;2.60;;
6937;SDS011;40040;42.706;23.372;2023-04-28T13:02:09;2.85;;;2.65;;
6937;SDS011;40040;42.706;23.372;2023-04-28T13:04:36;2.80;;;2.70;;
6937;SDS011;40040;42.706;23.372;2023-04-28T13:07:03;2.90;;;2.13;;
6937;SDS011;40040;42.706;23.372;2023-04-28T13:09:32;2.45;;;2.35;;
6937;SDS011;40040;42.706;23.372;2023-04-28T13:12:01;2.67;;;2.47;;
6937;SDS011;40040;42.706;23.372;2023-04-28T13:14:28;3.22;;;2.53;;
6937;SDS011;40040;42.706;23.372;2023-04-28T13:16:55;2.60;;;2.47;;
6937;SDS011;40040;42.706;23.372;2023-04-28T13:19:23;2.50;;;2.40;;
6937;SDS011;40040;42.706;23.372;2023-04-28T13:21:49;3.85;;;2.70;;
6937;SDS011;40040;42.706;23.372;2023-04-28T13:24:16;2.53;;;2.33;;
6937;SDS011;40040;42.706;23.372;2023-04-28T13:26:45;2.15;;;2.05;;
6937;SDS011;40040;42.706;23.372;2023-04-28T13:29:11;5.18;;;2.40;;
6937;SDS011;40040;42.706;23.372;2023-04-28T13:31:39;4.10;;;2.70;;
6937;SDS011;40040;42.706;23.372;2023-04-28T13:34:05;2.75;;;2.50;;
6937;SDS011;40040;42.706;23.372;2023-04-28T13:36:33;2.72;;;2.53;;
6937;SDS011;40040;42.706;23.372;2023-04-28T13:39:01;3.67;;;2.50;;
6937;SDS011;40040;42.706;23.372;2023-04-28T13:41:27;2.55;;;2.45;;
6937;SDS011;40040;42.706;23.372;2023-04-28T13:43:56;2.85;;;2.58;;
6937;SDS011;40040;42.706;23.372;2023-04-28T13:46:23;2.65;;;2.45;;
6937;SDS011;40040;42.706;23.372;2023-04-28T13:48:50;2.63;;;2.50;;
6937;SDS011;40040;42.706;23.372;2023-04-28T13:51:16;2.53;;;2.33;;
6937;SDS011;40040;42.706;23.372;2023-04-28T13:53:43;2.70;;;2.40;;
6937;SDS011;40040;42.706;23.372;2023-04-28T13:56:10;2.70;;;2.50;;
6937;SDS011;40040;42.706;23.372;2023-04-28T13:58:37;3.03;;;2.42;;
6937;SDS011;40040;42.706;23.372;2023-04-28T14:01:05;2.80;;;2.60;;
6937;SDS011;40040;42.706;23.372;2023-04-28T14:03:32;3.00;;;2.15;;
6937;SDS011;40040;42.706;23.372;2023-04-28T14:06:00;3.38;;;2.60;;
6937;SDS011;40040;42.706;23.372;2023-04-28T14:08:27;2.75;;;2.50;;
6937;SDS011;40040;42.706;23.372;2023-04-28T14:10:54;3.20;;;2.22;;
6937;SDS011;40040;42.706;23.372;2023-04-28T14:13:20;3.60;;;2.63;;
6937;SDS011;40040;42.706;23.372;2023-04-28T14:15:49;2.58;;;2.38;;
6937;SDS011;40040;42.706;23.372;2023-04-28T14:18:18;2.60;;;2.40;;
6937;SDS011;40040;42.706;23.372;2023-04-28T14:20:45;4.55;;;2.55;;
6937;SDS011;40040;42.706;23.372;2023-04-28T14:23:13;2.47;;;2.28;;
6937;SDS011;40040;42.706;23.372;2023-04-28T14:25:40;2.38;;;2.28;;
6937;SDS011;40040;42.706;23.372;2023-04-28T14:28:07;2.30;;;2.20;;
6937;SDS011;40040;42.706;23.372;2023-04-28T14:30:34;2.20;;;2.08;;
6937;SDS011;40040;42.706;23.372;2023-04-28T14:33:01;4.18;;;2.50;;
6937;SDS011;40040;42.706;23.372;2023-04-28T14:35:29;2.63;;;2.42;;
6937;SDS011;40040;42.706;23.372;2023-04-28T14:37:56;6.10;;;2.40;;
6937;SDS011;40040;42.706;23.372;2023-04-28T14:40:23;2.65;;;2.45;;
6937;SDS011;40040;42.706;23.372;2023-04-28T14:42:50;3.03;;;2.92;;
6937;SDS011;40040;42.706;23.372;2023-04-28T14:45:17;2.35;;;2.22;;
6937;SDS011;40040;42.706;23.372;2023-04-28T14:47:44;3.13;;;2.92;;
6937;SDS011;40040;42.706;23.372;2023-04-28T14:50:10;2.58;;;2.38;;
6937;SDS011;40040;42.706;23.372;2023-04-28T14:52:39;6.07;;;2.92;;
6937;SDS011;40040;42.706;23.372;2023-04-28T14:55:06;3.75;;;2.67;;
6937;SDS011;40040;42.706;23.372;2023-04-28T14:57:34;2.47;;;2.30;;